sensor_id;sensor_type;location;lat;lon;timestamp;temperature;humidity
71142;DHT22;58808;59.366;17.970;2022-09-03T00:02:38;10.60;99.90
71142;DHT22;58808;59.366;17.970;2022-09-03T00:10:42;10.20;99.90
71142;DHT22;58808;59.366;17.970;2022-09-03T00:13:15;10.10;99.90
71142;DHT22;58808;59.366;17.970;2022-09-03T00:15:42;10.00;99.90
71142;DHT22;58808;59.366;17.970;2022-09-03T00:18:20;9.90;99.90
71142;DHT22;58808;59.366;17.970;2022-09-03T00:20:54;9.70;99.90
71142;DHT22;58808;59.366;17.970;2022-09-03T00:23:26;9.70;99.90
71142;DHT22;58808;59.366;17.970;2022-09-03T00:26:21;9.70;99.90
71142;DHT22;58808;59.366;17.970;2022-09-03T00:28:53;9.80;99.90
71142;DHT22;58808;59.366;17.970;2022-09-03T00:31:35;9.80;99.90
71142;DHT22;58808;59.366;17.970;2022-09-03T00:34:09;9.90;99.90
71142;DHT22;58808;59.366;17.970;2022-09-03T00:39:01;9.80;99.90
71142;DHT22;58808;59.366;17.970;2022-09-03T00:46:55;9.80;99.90
71142;DHT22;58808;59.366;17.970;2022-09-03T00:55:26;10.00;99.90
71142;DHT22;58808;59.366;17.970;2022-09-03T00:58:20;10.10;99.90
71142;DHT22;58808;59.366;17.970;2022-09-03T01:00:51;10.10;99.90
71142;DHT22;58808;59.366;17.970;2022-09-03T01:04:00;10.10;99.90
71142;DHT22;58808;59.366;17.970;2022-09-03T01:07:12;10.10;99.90
71142;DHT22;58808;59.366;17.970;2022-09-03T01:18:34;10.10;99.90
71142;DHT22;58808;59.366;17.970;2022-09-03T01:35:09;9.70;99.90
71142;DHT22;58808;59.366;17.970;2022-09-03T01:46:42;10.00;99.90
71142;DHT22;58808;59.366;17.970;2022-09-03T01:49:24;10.00;99.90
71142;DHT22;58808;59.366;17.970;2022-09-03T01:52:00;10.00;99.90
71142;DHT22;58808;59.366;17.970;2022-09-03T01:57:44;10.10;99.90
71142;DHT22;58808;59.366;17.970;2022-09-03T02:00:17;10.00;99.90
71142;DHT22;58808;59.366;17.970;2022-09-03T02:02:46;10.10;99.90
71142;DHT22;58808;59.366;17.970;2022-09-03T02:07:55;10.10;99.90
71142;DHT22;58808;59.366;17.970;2022-09-03T02:10:31;10.10;99.90
71142;DHT22;58808;59.366;17.970;2022-09-03T02:13:06;10.20;99.90
71142;DHT22;58808;59.366;17.970;2022-09-03T02:15:32;10.20;99.90
71142;DHT22;58808;59.366;17.970;2022-09-03T02:18:02;10.10;99.90
71142;DHT22;58808;59.366;17.970;2022-09-03T02:20:30;10.10;99.90
71142;DHT22;58808;59.366;17.970;2022-09-03T02:22:57;10.10;99.90
71142;DHT22;58808;59.366;17.970;2022-09-03T02:25:40;10.20;99.90
71142;DHT22;58808;59.366;17.970;2022-09-03T02:28:07;10.10;99.90
71142;DHT22;58808;59.366;17.970;2022-09-03T02:30:33;10.10;99.90
71142;DHT22;58808;59.366;17.970;2022-09-03T02:33:00;10.10;99.90
71142;DHT22;58808;59.366;17.970;2022-09-03T02:35:26;10.10;99.90
71142;DHT22;58808;59.366;17.970;2022-09-03T02:37:51;10.10;99.90
71142;DHT22;58808;59.366;17.970;2022-09-03T02:40:17;10.10;99.90
71142;DHT22;58808;59.366;17.970;2022-09-03T02:42:43;10.10;99.90
71142;DHT22;58808;59.366;17.970;2022-09-03T02:45:26;10.10;99.90
71142;DHT22;58808;59.366;17.970;2022-09-03T02:47:58;10.20;99.90
71142;DHT22;58808;59.366;17.970;2022-09-03T02:50:25;10.20;99.90
71142;DHT22;58808;59.366;17.970;2022-09-03T02:52:51;10.20;99.90
71142;DHT22;58808;59.366;17.970;2022-09-03T02:55:17;10.00;99.90
71142;DHT22;58808;59.366;17.970;2022-09-03T02:57:44;9.90;99.90
71142;DHT22;58808;59.366;17.970;2022-09-03T03:00:10;9.90;99.90
71142;DHT22;58808;59.366;17.970;2022-09-03T03:02:35;9.80;99.90
71142;DHT22;58808;59.366;17.970;2022-09-03T03:05:01;9.90;99.90
71142;DHT22;58808;59.366;17.970;2022-09-03T03:07:29;9.90;99.90
71142;DHT22;58808;59.366;17.970;2022-09-03T03:09:56;10.00;99.90
71142;DHT22;58808;59.366;17.970;2022-09-03T03:12:22;10.00;99.90
71142;DHT22;58808;59.366;17.970;2022-09-03T03:14:53;10.10;99.90
71142;DHT22;58808;59.366;17.970;2022-09-03T03:17:19;10.20;99.90
71142;DHT22;58808;59.366;17.970;2022-09-03T03:19:45;10.20;99.90
71142;DHT22;58808;59.366;17.970;2022-09-03T03:22:10;10.20;99.90
71142;DHT22;58808;59.366;17.970;2022-09-03T03:24:36;10.20;99.90
71142;DHT22;58808;59.366;17.970;2022-09-03T03:27:02;10.20;99.90
71142;DHT22;58808;59.366;17.970;2022-09-03T03:29:30;10.30;99.90
71142;DHT22;58808;59.366;17.970;2022-09-03T03:31:56;10.20;99.90
71142;DHT22;58808;59.366;17.970;2022-09-03T03:34:22;10.20;99.90
71142;DHT22;58808;59.366;17.970;2022-09-03T03:36:48;10.20;99.90
71142;DHT22;58808;59.366;17.970;2022-09-03T03:39:13;10.20;99.90
71142;DHT22;58808;59.366;17.970;2022-09-03T03:41:39;10.20;99.90
71142;DHT22;58808;59.366;17.970;2022-09-03T03:44:06;10.10;99.90
71142;DHT22;58808;59.366;17.970;2022-09-03T03:46:41;10.20;99.90
71142;DHT22;58808;59.366;17.970;2022-09-03T03:49:07;10.20;99.90
71142;DHT22;58808;59.366;17.970;2022-09-03T03:51:34;10.20;99.90
71142;DHT22;58808;59.366;17.970;2022-09-03T03:54:00;10.20;99.90
71142;DHT22;58808;59.366;17.970;2022-09-03T03:56:26;10.20;99.90
71142;DHT22;58808;59.366;17.970;2022-09-03T03:58:53;10.20;99.90
71142;DHT22;58808;59.366;17.970;2022-09-03T04:01:21;10.20;99.90
71142;DHT22;58808;59.366;17.970;2022-09-03T04:03:47;10.20;99.90
71142;DHT22;58808;59.366;17.970;2022-09-03T04:06:15;10.20;99.90
71142;DHT22;58808;59.366;17.970;2022-09-03T04:08:42;10.20;99.90
71142;DHT22;58808;59.366;17.970;2022-09-03T04:11:12;10.30;99.90
71142;DHT22;58808;59.366;17.970;2022-09-03T04:13:44;10.30;99.90
71142;DHT22;58808;59.366;17.970;2022-09-03T04:18:40;10.40;99.90
71142;DHT22;58808;59.366;17.970;2022-09-03T04:21:10;10.30;99.90
71142;DHT22;58808;59.366;17.970;2022-09-03T04:23:39;10.30;99.90
71142;DHT22;58808;59.366;17.970;2022-09-03T04:26:06;10.40;99.90
71142;DHT22;58808;59.366;17.970;2022-09-03T04:28:33;10.30;99.90
71142;DHT22;58808;59.366;17.970;2022-09-03T04:31:03;10.30;99.90
71142;DHT22;58808;59.366;17.970;2022-09-03T04:33:30;10.30;99.90
71142;DHT22;58808;59.366;17.970;2022-09-03T04:36:11;10.40;99.90
71142;DHT22;58808;59.366;17.970;2022-09-03T04:38:39;10.40;99.90
71142;DHT22;58808;59.366;17.970;2022-09-03T04:41:07;10.40;99.90
71142;DHT22;58808;59.366;17.970;2022-09-03T04:43:39;10.40;99.90
71142;DHT22;58808;59.366;17.970;2022-09-03T04:46:08;10.40;99.90
71142;DHT22;58808;59.366;17.970;2022-09-03T04:48:35;10.40;99.90
71142;DHT22;58808;59.366;17.970;2022-09-03T04:51:09;10.40;99.90
71142;DHT22;58808;59.366;17.970;2022-09-03T04:53:40;10.40;99.90
71142;DHT22;58808;59.366;17.970;2022-09-03T04:56:24;10.40;99.90
71142;DHT22;58808;59.366;17.970;2022-09-03T04:58:55;10.50;99.90
71142;DHT22;58808;59.366;17.970;2022-09-03T05:01:22;10.50;99.90
71142;DHT22;58808;59.366;17.970;2022-09-03T05:03:49;10.50;99.90
71142;DHT22;58808;59.366;17.970;2022-09-03T05:06:16;10.50;99.90
71142;DHT22;58808;59.366;17.970;2022-09-03T05:08:43;10.50;99.90
71142;DHT22;58808;59.366;17.970;2022-09-03T05:11:12;10.60;99.90
71142;DHT22;58808;59.366;17.970;2022-09-03T05:13:39;10.60;99.90
71142;DHT22;58808;59.366;17.970;2022-09-03T05:16:07;10.60;99.90
71142;DHT22;58808;59.366;17.970;2022-09-03T05:18:34;10.60;99.90
71142;DHT22;58808;59.366;17.970;2022-09-03T05:21:04;10.60;99.90
71142;DHT22;58808;59.366;17.970;2022-09-03T05:23:31;10.60;99.90
71142;DHT22;58808;59.366;17.970;2022-09-03T05:25:58;10.60;99.90
71142;DHT22;58808;59.366;17.970;2022-09-03T05:28:29;10.70;99.90
71142;DHT22;58808;59.366;17.970;2022-09-03T05:33:28;10.70;99.90
71142;DHT22;58808;59.366;17.970;2022-09-03T05:35:59;10.70;99.90
71142;DHT22;58808;59.366;17.970;2022-09-03T05:38:25;10.70;99.90
71142;DHT22;58808;59.366;17.970;2022-09-03T05:40:51;10.70;99.90
71142;DHT22;58808;59.366;17.970;2022-09-03T05:43:16;10.80;99.90
71142;DHT22;58808;59.366;17.970;2022-09-03T05:45:42;10.80;99.90
71142;DHT22;58808;59.366;17.970;2022-09-03T05:48:08;10.80;99.90
71142;DHT22;58808;59.366;17.970;2022-09-03T05:50:33;10.80;99.90
71142;DHT22;58808;59.366;17.970;2022-09-03T05:52:59;10.80;99.90
71142;DHT22;58808;59.366;17.970;2022-09-03T05:55:25;10.90;99.90
71142;DHT22;58808;59.366;17.970;2022-09-03T05:57:53;10.90;99.90
71142;DHT22;58808;59.366;17.970;2022-09-03T06:00:19;10.90;99.90
71142;DHT22;58808;59.366;17.970;2022-09-03T06:02:51;11.00;99.90
71142;DHT22;58808;59.366;17.970;2022-09-03T06:05:17;11.00;99.90
71142;DHT22;58808;59.366;17.970;2022-09-03T06:07:44;11.00;99.90
71142;DHT22;58808;59.366;17.970;2022-09-03T06:12:38;11.10;99.90
71142;DHT22;58808;59.366;17.970;2022-09-03T06:15:04;11.10;99.90
71142;DHT22;58808;59.366;17.970;2022-09-03T06:17:30;11.10;99.90
71142;DHT22;58808;59.366;17.970;2022-09-03T06:19:56;11.20;99.90
71142;DHT22;58808;59.366;17.970;2022-09-03T06:22:21;11.20;99.90
71142;DHT22;58808;59.366;17.970;2022-09-03T06:24:50;11.20;99.90
71142;DHT22;58808;59.366;17.970;2022-09-03T06:27:15;11.20;99.90
71142;DHT22;58808;59.366;17.970;2022-09-03T06:29:41;11.30;99.90
71142;DHT22;58808;59.366;17.970;2022-09-03T06:32:06;11.30;99.90
71142;DHT22;58808;59.366;17.970;2022-09-03T06:34:32;11.30;99.90
71142;DHT22;58808;59.366;17.970;2022-09-03T06:36:58;11.40;99.90
71142;DHT22;58808;59.366;17.970;2022-09-03T06:39:23;11.40;99.90
71142;DHT22;58808;59.366;17.970;2022-09-03T06:41:50;11.40;99.90
71142;DHT22;58808;59.366;17.970;2022-09-03T06:44:16;11.40;99.90
71142;DHT22;58808;59.366;17.970;2022-09-03T06:46:42;11.40;99.90
71142;DHT22;58808;59.366;17.970;2022-09-03T06:49:08;11.40;99.90
71142;DHT22;58808;59.366;17.970;2022-09-03T06:51:35;11.40;99.90
71142;DHT22;58808;59.366;17.970;2022-09-03T06:54:10;11.50;99.90
71142;DHT22;58808;59.366;17.970;2022-09-03T06:56:38;11.50;99.90
71142;DHT22;58808;59.366;17.970;2022-09-03T06:59:06;11.40;99.90
71142;DHT22;58808;59.366;17.970;2022-09-03T07:01:33;11.40;99.90
71142;DHT22;58808;59.366;17.970;2022-09-03T07:04:01;11.40;99.90
71142;DHT22;58808;59.366;17.970;2022-09-03T07:06:37;11.40;99.90
71142;DHT22;58808;59.366;17.970;2022-09-03T07:09:08;11.50;99.90
71142;DHT22;58808;59.366;17.970;2022-09-03T07:11:35;11.50;99.90
71142;DHT22;58808;59.366;17.970;2022-09-03T07:14:03;11.50;99.90
71142;DHT22;58808;59.366;17.970;2022-09-03T07:16:34;11.50;99.90
71142;DHT22;58808;59.366;17.970;2022-09-03T07:19:00;11.60;99.90
71142;DHT22;58808;59.366;17.970;2022-09-03T07:21:29;11.70;99.90
71142;DHT22;58808;59.366;17.970;2022-09-03T07:23:56;11.70;99.90
71142;DHT22;58808;59.366;17.970;2022-09-03T07:26:25;11.70;99.90
71142;DHT22;58808;59.366;17.970;2022-09-03T07:28:52;11.80;99.90
71142;DHT22;58808;59.366;17.970;2022-09-03T07:31:27;11.80;99.90
71142;DHT22;58808;59.366;17.970;2022-09-03T07:33:56;11.90;99.90
71142;DHT22;58808;59.366;17.970;2022-09-03T07:36:24;11.90;99.90
71142;DHT22;58808;59.366;17.970;2022-09-03T07:38:54;11.90;99.90
71142;DHT22;58808;59.366;17.970;2022-09-03T07:41:20;11.90;99.90
71142;DHT22;58808;59.366;17.970;2022-09-03T07:43:46;12.00;99.90
71142;DHT22;58808;59.366;17.970;2022-09-03T07:46:17;12.10;99.90
71142;DHT22;58808;59.366;17.970;2022-09-03T07:48:58;12.10;99.90
71142;DHT22;58808;59.366;17.970;2022-09-03T07:51:26;12.00;99.90
71142;DHT22;58808;59.366;17.970;2022-09-03T07:53:54;12.10;99.90
71142;DHT22;58808;59.366;17.970;2022-09-03T07:56:20;12.10;99.90
71142;DHT22;58808;59.366;17.970;2022-09-03T07:58:46;12.10;99.90
71142;DHT22;58808;59.366;17.970;2022-09-03T08:01:14;12.10;99.90
71142;DHT22;58808;59.366;17.970;2022-09-03T08:03:49;12.10;99.90
71142;DHT22;58808;59.366;17.970;2022-09-03T08:06:17;12.10;99.90
71142;DHT22;58808;59.366;17.970;2022-09-03T08:08:43;12.10;99.90
71142;DHT22;58808;59.366;17.970;2022-09-03T08:11:14;12.10;99.90
71142;DHT22;58808;59.366;17.970;2022-09-03T08:13:44;12.10;99.90
71142;DHT22;58808;59.366;17.970;2022-09-03T08:16:12;12.10;99.90
71142;DHT22;58808;59.366;17.970;2022-09-03T08:18:38;12.10;99.90
71142;DHT22;58808;59.366;17.970;2022-09-03T08:21:09;12.10;99.90
71142;DHT22;58808;59.366;17.970;2022-09-03T08:23:43;12.10;99.90
71142;DHT22;58808;59.366;17.970;2022-09-03T08:26:10;12.10;99.90
71142;DHT22;58808;59.366;17.970;2022-09-03T08:28:37;12.10;99.90
71142;DHT22;58808;59.366;17.970;2022-09-03T08:31:06;12.10;99.90
71142;DHT22;58808;59.366;17.970;2022-09-03T08:33:36;12.10;99.90
71142;DHT22;58808;59.366;17.970;2022-09-03T08:36:07;12.10;99.90
71142;DHT22;58808;59.366;17.970;2022-09-03T08:38:34;12.20;99.90
71142;DHT22;58808;59.366;17.970;2022-09-03T08:41:10;12.10;99.90
71142;DHT22;58808;59.366;17.970;2022-09-03T08:49:13;12.10;99.90
71142;DHT22;58808;59.366;17.970;2022-09-03T08:51:41;12.10;99.90
71142;DHT22;58808;59.366;17.970;2022-09-03T08:54:10;12.10;99.90
71142;DHT22;58808;59.366;17.970;2022-09-03T08:56:39;12.10;99.90
71142;DHT22;58808;59.366;17.970;2022-09-03T08:59:07;12.10;99.90
71142;DHT22;58808;59.366;17.970;2022-09-03T09:09:31;12.10;99.90
71142;DHT22;58808;59.366;17.970;2022-09-03T09:12:03;12.10;99.90
71142;DHT22;58808;59.366;17.970;2022-09-03T09:23:05;12.10;99.90
71142;DHT22;58808;59.366;17.970;2022-09-03T09:25:38;12.20;99.90
71142;DHT22;58808;59.366;17.970;2022-09-03T09:28:17;12.20;99.90
71142;DHT22;58808;59.366;17.970;2022-09-03T09:30:45;12.30;99.90
71142;DHT22;58808;59.366;17.970;2022-09-03T09:33:12;12.40;99.90
71142;DHT22;58808;59.366;17.970;2022-09-03T09:35:38;12.40;99.90
71142;DHT22;58808;59.366;17.970;2022-09-03T09:38:07;12.40;99.90
71142;DHT22;58808;59.366;17.970;2022-09-03T09:40:40;12.40;99.90
71142;DHT22;58808;59.366;17.970;2022-09-03T09:43:15;12.50;99.90
71142;DHT22;58808;59.366;17.970;2022-09-03T09:45:43;12.50;99.90
71142;DHT22;58808;59.366;17.970;2022-09-03T09:48:36;12.60;99.90
71142;DHT22;58808;59.366;17.970;2022-09-03T09:51:05;12.70;99.90
71142;DHT22;58808;59.366;17.970;2022-09-03T09:53:31;12.70;99.90
71142;DHT22;58808;59.366;17.970;2022-09-03T09:55:59;12.70;99.90
71142;DHT22;58808;59.366;17.970;2022-09-03T09:58:28;12.70;99.90
71142;DHT22;58808;59.366;17.970;2022-09-03T10:01:13;12.70;99.90
71142;DHT22;58808;59.366;17.970;2022-09-03T10:03:55;12.70;99.90
71142;DHT22;58808;59.366;17.970;2022-09-03T10:06:26;12.80;99.90
71142;DHT22;58808;59.366;17.970;2022-09-03T10:09:17;12.80;99.90
71142;DHT22;58808;59.366;17.970;2022-09-03T10:11:46;12.80;99.90
71142;DHT22;58808;59.366;17.970;2022-09-03T10:14:28;12.80;99.90
71142;DHT22;58808;59.366;17.970;2022-09-03T10:20:06;12.80;99.90
71142;DHT22;58808;59.366;17.970;2022-09-03T10:23:24;12.70;99.90
71142;DHT22;58808;59.366;17.970;2022-09-03T10:26:08;12.70;99.90
71142;DHT22;58808;59.366;17.970;2022-09-03T10:28:37;12.80;99.90
71142;DHT22;58808;59.366;17.970;2022-09-03T11:00:27;13.30;99.90
71142;DHT22;58808;59.366;17.970;2022-09-03T11:03:30;13.30;99.90
71142;DHT22;58808;59.366;17.970;2022-09-03T11:06:24;13.30;99.90
71142;DHT22;58808;59.366;17.970;2022-09-03T11:08:55;13.40;99.90
71142;DHT22;58808;59.366;17.970;2022-09-03T11:11:33;13.40;98.00
71142;DHT22;58808;59.366;17.970;2022-09-03T11:14:08;13.40;95.30
71142;DHT22;58808;59.366;17.970;2022-09-03T11:16:55;13.50;96.20
71142;DHT22;58808;59.366;17.970;2022-09-03T11:19:32;13.50;90.10
71142;DHT22;58808;59.366;17.970;2022-09-03T11:21:59;13.40;87.20
71142;DHT22;58808;59.366;17.970;2022-09-03T11:24:27;13.40;91.80
71142;DHT22;58808;59.366;17.970;2022-09-03T11:29:52;13.40;96.10
71142;DHT22;58808;59.366;17.970;2022-09-03T11:34:58;13.50;93.90
71142;DHT22;58808;59.366;17.970;2022-09-03T11:37:26;13.50;93.10
71142;DHT22;58808;59.366;17.970;2022-09-03T11:40:02;13.50;95.20
71142;DHT22;58808;59.366;17.970;2022-09-03T11:45:19;13.60;93.60
71142;DHT22;58808;59.366;17.970;2022-09-03T11:47:50;13.60;94.80
71142;DHT22;58808;59.366;17.970;2022-09-03T11:50:25;13.60;95.60
71142;DHT22;58808;59.366;17.970;2022-09-03T11:52:54;13.50;96.50
71142;DHT22;58808;59.366;17.970;2022-09-03T11:58:23;13.60;97.10
71142;DHT22;58808;59.366;17.970;2022-09-03T12:00:49;13.70;96.00
71142;DHT22;58808;59.366;17.970;2022-09-03T12:03:23;13.60;93.10
71142;DHT22;58808;59.366;17.970;2022-09-03T12:14:39;13.50;73.80
71142;DHT22;58808;59.366;17.970;2022-09-03T12:19:57;13.50;68.50
71142;DHT22;58808;59.366;17.970;2022-09-03T12:22:26;13.40;70.30
71142;DHT22;58808;59.366;17.970;2022-09-03T12:24:53;13.40;70.20
71142;DHT22;58808;59.366;17.970;2022-09-03T12:27:24;13.40;70.50
71142;DHT22;58808;59.366;17.970;2022-09-03T12:29:56;13.40;74.00
71142;DHT22;58808;59.366;17.970;2022-09-03T12:32:32;13.40;77.30
71142;DHT22;58808;59.366;17.970;2022-09-03T12:35:21;13.50;68.20
71142;DHT22;58808;59.366;17.970;2022-09-03T12:37:47;13.50;67.00
71142;DHT22;58808;59.366;17.970;2022-09-03T12:40:20;13.50;64.50
71142;DHT22;58808;59.366;17.970;2022-09-03T12:42:47;13.50;65.50
71142;DHT22;58808;59.366;17.970;2022-09-03T12:45:14;13.50;67.60
71142;DHT22;58808;59.366;17.970;2022-09-03T12:47:43;13.40;67.40
71142;DHT22;58808;59.366;17.970;2022-09-03T12:50:18;13.50;72.50
71142;DHT22;58808;59.366;17.970;2022-09-03T12:53:03;13.40;71.60
71142;DHT22;58808;59.366;17.970;2022-09-03T12:55:42;13.40;73.70
71142;DHT22;58808;59.366;17.970;2022-09-03T12:58:14;13.40;74.50
71142;DHT22;58808;59.366;17.970;2022-09-03T13:00:50;13.50;78.80
71142;DHT22;58808;59.366;17.970;2022-09-03T13:03:43;13.60;78.60
71142;DHT22;58808;59.366;17.970;2022-09-03T13:06:14;13.60;75.70
71142;DHT22;58808;59.366;17.970;2022-09-03T13:08:59;13.60;75.90
71142;DHT22;58808;59.366;17.970;2022-09-03T13:11:27;13.60;79.00
71142;DHT22;58808;59.366;17.970;2022-09-03T13:27:22;13.50;70.50
71142;DHT22;58808;59.366;17.970;2022-09-03T13:33:18;13.50;74.80
71142;DHT22;58808;59.366;17.970;2022-09-03T13:35:58;13.50;72.90
71142;DHT22;58808;59.366;17.970;2022-09-03T13:49:53;13.80;58.40
71142;DHT22;58808;59.366;17.970;2022-09-03T13:52:56;13.80;60.80
71142;DHT22;58808;59.366;17.970;2022-09-03T13:55:40;13.70;63.80
71142;DHT22;58808;59.366;17.970;2022-09-03T14:04:20;13.80;69.90
71142;DHT22;58808;59.366;17.970;2022-09-03T14:06:59;13.80;71.60
71142;DHT22;58808;59.366;17.970;2022-09-03T14:09:47;13.80;76.10
71142;DHT22;58808;59.366;17.970;2022-09-03T14:17:42;13.50;83.60
71142;DHT22;58808;59.366;17.970;2022-09-03T14:20:25;13.60;83.00
71142;DHT22;58808;59.366;17.970;2022-09-03T14:23:03;13.60;82.70
71142;DHT22;58808;59.366;17.970;2022-09-03T14:25:30;13.50;85.00
71142;DHT22;58808;59.366;17.970;2022-09-03T14:28:35;13.40;85.30
71142;DHT22;58808;59.366;17.970;2022-09-03T14:31:25;13.40;86.50
71142;DHT22;58808;59.366;17.970;2022-09-03T14:34:14;13.40;89.60
71142;DHT22;58808;59.366;17.970;2022-09-03T14:50:04;13.50;87.20
71142;DHT22;58808;59.366;17.970;2022-09-03T15:00:59;13.40;92.30
71142;DHT22;58808;59.366;17.970;2022-09-03T15:11:18;13.30;97.20
71142;DHT22;58808;59.366;17.970;2022-09-03T15:13:53;13.20;98.60
71142;DHT22;58808;59.366;17.970;2022-09-03T15:16:44;13.20;98.20
71142;DHT22;58808;59.366;17.970;2022-09-03T15:19:33;13.10;99.90
71142;DHT22;58808;59.366;17.970;2022-09-03T15:30:18;13.10;99.90
71142;DHT22;58808;59.366;17.970;2022-09-03T15:38:12;13.10;99.20
71142;DHT22;58808;59.366;17.970;2022-09-03T15:43:20;13.10;99.80
71142;DHT22;58808;59.366;17.970;2022-09-03T15:45:56;13.00;99.90
71142;DHT22;58808;59.366;17.970;2022-09-03T15:48:31;13.00;99.90
71142;DHT22;58808;59.366;17.970;2022-09-03T15:51:27;13.00;99.90
71142;DHT22;58808;59.366;17.970;2022-09-03T15:54:06;12.90;99.90
71142;DHT22;58808;59.366;17.970;2022-09-03T15:56:54;13.00;99.90
71142;DHT22;58808;59.366;17.970;2022-09-03T16:00:07;12.90;99.90
71142;DHT22;58808;59.366;17.970;2022-09-03T16:05:17;12.90;99.90
71142;DHT22;58808;59.366;17.970;2022-09-03T16:10:49;13.00;99.90
71142;DHT22;58808;59.366;17.970;2022-09-03T16:13:42;13.00;99.90
71142;DHT22;58808;59.366;17.970;2022-09-03T16:19:36;13.00;99.90
71142;DHT22;58808;59.366;17.970;2022-09-03T16:22:30;12.90;99.90
71142;DHT22;58808;59.366;17.970;2022-09-03T16:25:00;12.90;99.90
71142;DHT22;58808;59.366;17.970;2022-09-03T16:30:00;12.90;99.90
71142;DHT22;58808;59.366;17.970;2022-09-03T16:37:23;12.90;99.90
71142;DHT22;58808;59.366;17.970;2022-09-03T16:40:02;12.80;99.90
71142;DHT22;58808;59.366;17.970;2022-09-03T16:51:09;12.70;99.90
71142;DHT22;58808;59.366;17.970;2022-09-03T16:54:00;12.60;99.90
71142;DHT22;58808;59.366;17.970;2022-09-03T17:05:00;12.50;99.90
71142;DHT22;58808;59.366;17.970;2022-09-03T17:13:14;12.40;99.90
71142;DHT22;58808;59.366;17.970;2022-09-03T17:21:38;12.30;99.90
71142;DHT22;58808;59.366;17.970;2022-09-03T17:35:32;12.40;99.90
71142;DHT22;58808;59.366;17.970;2022-09-03T17:43:49;12.30;99.90
71142;DHT22;58808;59.366;17.970;2022-09-03T17:49:00;12.30;99.90
71142;DHT22;58808;59.366;17.970;2022-09-03T17:51:49;12.20;99.90
71142;DHT22;58808;59.366;17.970;2022-09-03T18:02:44;12.30;99.90
71142;DHT22;58808;59.366;17.970;2022-09-03T18:05:25;12.30;99.90
71142;DHT22;58808;59.366;17.970;2022-09-03T18:10:42;12.20;99.90
71142;DHT22;58808;59.366;17.970;2022-09-03T18:15:53;12.30;99.90
71142;DHT22;58808;59.366;17.970;2022-09-03T18:18:27;12.30;99.90
71142;DHT22;58808;59.366;17.970;2022-09-03T18:20:55;12.40;99.90
71142;DHT22;58808;59.366;17.970;2022-09-03T18:26:36;12.30;99.90
71142;DHT22;58808;59.366;17.970;2022-09-03T18:29:36;12.20;99.90
71142;DHT22;58808;59.366;17.970;2022-09-03T18:32:22;12.20;99.90
71142;DHT22;58808;59.366;17.970;2022-09-03T18:35:08;12.20;99.90
71142;DHT22;58808;59.366;17.970;2022-09-03T18:37:52;12.20;99.90
71142;DHT22;58808;59.366;17.970;2022-09-03T18:44:28;12.30;99.90
71142;DHT22;58808;59.366;17.970;2022-09-03T18:50:30;12.20;99.90
71142;DHT22;58808;59.366;17.970;2022-09-03T19:05:55;12.00;99.90
71142;DHT22;58808;59.366;17.970;2022-09-03T19:11:49;12.00;99.90
71142;DHT22;58808;59.366;17.970;2022-09-03T19:14:58;12.00;99.90
71142;DHT22;58808;59.366;17.970;2022-09-03T19:17:53;12.00;99.90
71142;DHT22;58808;59.366;17.970;2022-09-03T19:23:58;12.00;99.90
71142;DHT22;58808;59.366;17.970;2022-09-03T19:26:55;12.10;99.90
71142;DHT22;58808;59.366;17.970;2022-09-03T19:29:59;12.00;99.90
71142;DHT22;58808;59.366;17.970;2022-09-03T19:36:20;12.00;99.90
71142;DHT22;58808;59.366;17.970;2022-09-03T19:45:15;12.00;99.90
71142;DHT22;58808;59.366;17.970;2022-09-03T19:51:08;12.00;99.90
71142;DHT22;58808;59.366;17.970;2022-09-03T19:53:53;11.90;99.90
71142;DHT22;58808;59.366;17.970;2022-09-03T19:56:40;11.90;99.90
71142;DHT22;58808;59.366;17.970;2022-09-03T19:59:26;11.90;99.90
71142;DHT22;58808;59.366;17.970;2022-09-03T20:02:12;11.90;99.90
71142;DHT22;58808;59.366;17.970;2022-09-03T20:05:01;11.80;99.90
71142;DHT22;58808;59.366;17.970;2022-09-03T20:07:48;11.70;99.90
71142;DHT22;58808;59.366;17.970;2022-09-03T20:10:33;11.70;99.90
71142;DHT22;58808;59.366;17.970;2022-09-03T20:13:11;11.70;99.90
71142;DHT22;58808;59.366;17.970;2022-09-03T20:16:05;11.70;99.90
71142;DHT22;58808;59.366;17.970;2022-09-03T20:18:50;11.80;99.90
71142;DHT22;58808;59.366;17.970;2022-09-03T20:24:35;11.70;99.90
71142;DHT22;58808;59.366;17.970;2022-09-03T20:30:00;11.80;99.90
71142;DHT22;58808;59.366;17.970;2022-09-03T20:32:53;11.90;99.90
71142;DHT22;58808;59.366;17.970;2022-09-03T20:41:01;11.90;99.90
71142;DHT22;58808;59.366;17.970;2022-09-03T20:49:48;11.90;99.90
71142;DHT22;58808;59.366;17.970;2022-09-03T20:52:21;11.90;99.90
71142;DHT22;58808;59.366;17.970;2022-09-03T20:55:51;11.90;99.90
71142;DHT22;58808;59.366;17.970;2022-09-03T21:01:13;12.00;99.90
71142;DHT22;58808;59.366;17.970;2022-09-03T21:06:32;11.90;99.90
71142;DHT22;58808;59.366;17.970;2022-09-03T21:25:27;11.80;99.90
71142;DHT22;58808;59.366;17.970;2022-09-03T21:28:00;11.80;99.90
71142;DHT22;58808;59.366;17.970;2022-09-03T21:30:27;11.90;99.90
71142;DHT22;58808;59.366;17.970;2022-09-03T21:33:30;11.90;99.90
71142;DHT22;58808;59.366;17.970;2022-09-03T21:36:34;11.90;99.90
71142;DHT22;58808;59.366;17.970;2022-09-03T21:39:25;11.90;99.90
71142;DHT22;58808;59.366;17.970;2022-09-03T21:47:18;11.90;99.90
71142;DHT22;58808;59.366;17.970;2022-09-03T21:58:19;11.90;99.90
71142;DHT22;58808;59.366;17.970;2022-09-03T22:00:55;11.80;99.90
71142;DHT22;58808;59.366;17.970;2022-09-03T22:03:22;11.70;99.90
71142;DHT22;58808;59.366;17.970;2022-09-03T22:05:56;11.80;99.90
71142;DHT22;58808;59.366;17.970;2022-09-03T22:08:35;11.80;99.90
71142;DHT22;58808;59.366;17.970;2022-09-03T22:14:10;11.80;99.90
71142;DHT22;58808;59.366;17.970;2022-09-03T22:17:03;11.80;99.90
71142;DHT22;58808;59.366;17.970;2022-09-03T22:19:35;11.80;99.90
71142;DHT22;58808;59.366;17.970;2022-09-03T22:22:10;11.70;99.90
71142;DHT22;58808;59.366;17.970;2022-09-03T22:24:47;11.70;99.90
71142;DHT22;58808;59.366;17.970;2022-09-03T22:27:38;11.70;99.90
71142;DHT22;58808;59.366;17.970;2022-09-03T22:30:10;11.70;99.90
71142;DHT22;58808;59.366;17.970;2022-09-03T22:44:09;11.70;99.90
71142;DHT22;58808;59.366;17.970;2022-09-03T22:52:58;11.80;99.90
71142;DHT22;58808;59.366;17.970;2022-09-03T22:55:28;11.80;99.90
71142;DHT22;58808;59.366;17.970;2022-09-03T22:58:14;11.80;99.90
71142;DHT22;58808;59.366;17.970;2022-09-03T23:00:49;11.80;99.90
71142;DHT22;58808;59.366;17.970;2022-09-03T23:03:26;11.80;99.90